ALTA_AIRPORT current weather conditions

sailwx.info

Wind from 330 at 31 knots

Air temperature -3.0° C
Visibility: greater than 5.4 NM
Dewpoint -7.0° C
Present weather: Light low drifting snow.

Last reported at 2020-Jan-22 11:50 UTC.
Time now 2020-Jan-22 13:29 UTC

Location: N 69°59' E 023°22'.
View on Google Maps.

See reports from other nearby stations

  
Tides and Currents Weather Stations Pressure Air Temp Water Temp Dewpoint Dewpoint Depression Visibility Wind Speed Wind Dir Waves Ship Positions
date/time (UTC)wind fromknots sea level pressurealtimeterstation pressurevisibilityair tempwater tempwave heightnotes
2020-Jan-22 12:50 330 28 5.4-2.0
2020-Jan-22 11:50 330 31 5.4-3.0 Light low drifting snow.
2020-Jan-22 10:50 330 35 5.4-3.0 Light low drifting snow. Showers in the vicinity.
2020-Jan-22 09:50 330 27 5.4-3.0 Showers in the vicinity.
2020-Jan-22 08:50 330 27 5.4-3.0 Showers in the vicinity. Light low drifting snow.
2020-Jan-22 07:50 330 26 5.4-3.0 Showers in the vicinity.
2020-Jan-22 06:50 340 25 3.8-3.0 Light snow.
2020-Jan-22 05:50 340 21 4.3-3.0 Showers in the vicinity.
2020-Jan-22 04:50 330 20 4.3-2.0 Light snow.
2020-Jan-22 03:50 340 20 4.3-2.0 Light snow.
2020-Jan-22 03:24 350 24 3.2-2.0 Light snow.
2020-Jan-22 03:16 350 24 4.3-2.0 Showers in the vicinity.
2020-Jan-22 02:50 350 22 1.2-2.0 Light snow.
2020-Jan-22 01:50 350 19 4.3-1.0 Light snow.
2020-Jan-22 00:50 010 6 5.4-1.0
2020-Jan-21 23:50 020 11 5.4-1.0 Light snow.
2020-Jan-21 22:50 020 13 1.3-0.0 Light snow.
2020-Jan-21 22:08 020 20 3.2-0.0 Light snow showers.
2020-Jan-21 21:50 020 13 5.4-0.0 Light snow.
2020-Jan-21 20:50 040 13 5.4-0.0
2020-Jan-21 20:16 3.8-0.0 Light snow.
2020-Jan-21 19:50 320 13 2.2-0.0 Light snow showers.
2020-Jan-21 19:23 330 18 1.3-0.0 Snow showers.
2020-Jan-21 19:09 340 18 2.7 1.0 Light snow showers.
2020-Jan-21 18:50 320 14 5.4 1.0
2020-Jan-21 17:50 260 8 5.4-0.0
2020-Jan-21 16:50 270 12 gusting 22 5.4-1.0
2020-Jan-21 15:50 260 6 5.4-1.0 Light snow.
2020-Jan-21 14:50 220 6 4.9-1.0 Showers in the vicinity.
2020-Jan-21 14:09 240 6 5.4-1.0 Light snow.
2020-Jan-21 13:50 260 8 4.3-0.0 Light snow.
2020-Jan-21 12:50 280 11 4.9-0.0 Light snow showers.
2020-Jan-21 11:50 220 4 5.4-0.0 Showers in the vicinity.
2020-Jan-21 11:08 220 5 0.8-0.0 Snow showers.
2020-Jan-21 10:50 250 2 4.3-0.0 Light snow showers.
2020-Jan-21 10:26 270 6 0.8-0.0 Snow showers.
2020-Jan-21 09:50 280 9 1.3-0.0 Light snow showers.
2020-Jan-21 08:50 200 2 5.4-1.0 Showers in the vicinity.
2020-Jan-21 07:50 250 2 5.4-0.0 Showers in the vicinity.
2020-Jan-21 06:50 320 12 1.8-0.0 Light snow showers.
2020-Jan-21 06:21 330 19 0.9 1.0 Light snow showers. Snow grains.
2020-Jan-21 05:50 5.4-0.0
2020-Jan-21 05:07 270 9 1.0 1.0 Snow showers.
2020-Jan-21 04:50 260 9 4.3 2.0 Light snow showers.
2020-Jan-21 03:50 210 8 5.4 2.0
2020-Jan-21 02:50 290 5 5.4 1.0
2020-Jan-20 23:50 240 4 5.4-0.0
2020-Jan-20 22:50 340 12 5.4 2.0
2020-Jan-20 21:50 330 9 5.4 3.0
2020-Jan-20 20:50 5.4 1.0 Light rain.
2020-Jan-20 20:14 150 4 5.4 1.0 Light rain.
2020-Jan-20 19:50 5.4 1.0
2020-Jan-20 18:50 200 9 5.4 1.0
2020-Jan-20 17:50 190 4 5.4 1.0
2020-Jan-20 16:50 190 7 5.4 2.0
2020-Jan-20 15:50 180 5 5.4 3.0
2020-Jan-20 14:50 250 9 5.4 5.0
2020-Jan-20 13:50 240 5 5.4-0.0